Time;durP1;ratioP1;P1;durP2;ratioP2;P2;SDS_P1;SDS_P2;PMS_P1;PMS_P2;Temp;Humidity;BMP_temperature;BMP_pressure;BME280_temperature;BME280_humidity;BME280_pressure;Samples;Min_cycle;Max_cycle;Signal;HPM_P1;HPM_P2
2022/01/22 00:00:38;;;;;;;1.90;0.77;;;;;;;2.07;89.14;97605.75;5058870;28;20231;-67
2022/01/22 00:03:05;;;;;;;1.03;0.90;;;;;;;2.15;88.89;97606.13;5057662;28;20200;-67
2022/01/22 00:05:33;;;;;;;1.80;0.90;;;;;;;2.32;88.34;97608.53;5059134;28;20201;-67
2022/01/22 00:08:00;;;;;;;0.93;0.83;;;;;;;2.19;87.83;97607.59;5058346;28;20239;-67
2022/01/22 00:10:27;;;;;;;0.60;0.60;;;;;;;1.94;89.17;97591.84;5058253;28;20204;-68
2022/01/22 00:13:08;;;;;;;0.40;0.40;;;;;;;2.15;88.98;97587.94;5057836;28;20212;-67
2022/01/22 00:15:35;;;;;;;0.50;0.50;;;;;;;1.94;89.43;97584.03;5058618;28;20231;-67
2022/01/22 00:18:02;;;;;;;1.67;0.97;;;;;;;1.96;89.37;97575.22;5057971;28;20235;-67
2022/01/22 00:20:29;;;;;;;6.83;1.23;;;;;;;2.27;89.33;97582.00;5058579;28;20225;-67
2022/01/22 00:22:57;;;;;;;2.07;1.53;;;;;;;2.18;89.29;97582.56;5057543;28;20204;-67
2022/01/22 00:25:24;;;;;;;5.30;1.63;;;;;;;1.97;88.93;97576.03;5056884;28;20580;-68
2022/01/22 00:27:51;;;;;;;1.93;1.27;;;;;;;2.23;89.10;97565.75;5057753;28;20604;-67
2022/01/22 00:30:19;;;;;;;0.80;0.53;;;;;;;2.28;88.13;97566.28;5058579;28;20208;-67
2022/01/22 00:32:46;;;;;;;2.73;1.13;;;;;;;2.22;88.41;97571.03;5057227;28;20223;-67
2022/01/22 00:35:13;;;;;;;9.17;0.93;;;;;;;1.93;88.88;97569.38;5058539;28;20211;-67
2022/01/22 00:37:42;;;;;;;2.40;1.70;;;;;;;2.27;88.56;97566.38;5058067;28;20225;-67
2022/01/22 00:40:11;;;;;;;3.47;1.03;;;;;;;2.20;88.90;97565.09;5057709;28;20723;-67
2022/01/22 00:42:39;;;;;;;3.47;1.50;;;;;;;2.48;87.79;97569.31;5056354;28;21054;-67
2022/01/22 00:45:06;;;;;;;2.87;1.50;;;;;;;2.06;88.41;97559.88;5058229;28;20211;-67
2022/01/22 00:47:33;;;;;;;1.77;1.00;;;;;;;2.36;87.60;97563.22;5058115;28;20230;-67
2022/01/22 00:49:59;;;;;;;1.00;0.93;;;;;;;2.37;87.30;97560.53;5057550;28;20197;-67
2022/01/22 00:52:26;;;;;;;3.50;1.43;;;;;;;2.24;88.13;97549.22;5056653;28;20201;-68
2022/01/22 00:54:52;;;;;;;1.67;1.17;;;;;;;2.42;87.51;97554.09;5058360;28;20243;-67
2022/01/22 00:57:20;;;;;;;3.70;1.63;;;;;;;2.46;87.11;97565.16;5057396;28;20228;-67
2022/01/22 00:59:47;;;;;;;5.07;2.17;;;;;;;2.11;88.64;97557.84;5057127;28;20226;-67
2022/01/22 01:02:13;;;;;;;0.73;0.60;;;;;;;2.37;87.54;97557.06;5057242;28;20219;-67
2022/01/22 01:04:40;;;;;;;0.80;0.60;;;;;;;2.07;88.50;97557.19;5057738;28;20602;-67
2022/01/22 01:07:06;;;;;;;6.07;1.83;;;;;;;2.18;87.99;97559.16;5056635;28;20311;-67
2022/01/22 01:09:36;;;;;;;2.57;0.87;;;;;;;2.30;87.66;97563.59;5057908;28;20209;-67
2022/01/22 01:12:06;;;;;;;1.63;1.53;;;;;;;2.37;87.23;97565.72;5057765;28;20240;-67
2022/01/22 01:14:39;;;;;;;4.03;0.90;;;;;;;2.57;87.84;97563.53;5056886;28;20246;-67
2022/01/22 01:17:22;;;;;;;2.23;1.27;;;;;;;2.19;87.60;97559.06;5057675;28;20230;-67
2022/01/22 01:33:56;;;;;;;0.90;0.90;;;;;;;2.27;87.69;97546.41;5056669;28;20209;-67
2022/01/22 01:36:22;;;;;;;1.03;0.90;;;;;;;2.24;87.88;97554.41;5056607;28;20639;-67
2022/01/22 01:38:54;;;;;;;1.10;1.03;;;;;;;2.24;87.90;97543.16;5057142;28;20204;-67
2022/01/22 01:41:28;;;;;;;3.43;1.47;;;;;;;2.39;87.63;97547.41;5057212;28;20227;-67
2022/01/22 01:43:55;;;;;;;0.40;0.40;;;;;;;2.26;87.91;97547.34;5056370;28;20204;-68
2022/01/22 01:46:25;;;;;;;0.70;0.70;;;;;;;2.36;87.98;97558.03;5056665;28;20603;-67
2022/01/22 01:48:51;;;;;;;1.60;0.93;;;;;;;2.49;87.29;97563.16;5057213;28;20211;-68
2022/01/22 01:51:17;;;;;;;1.53;1.43;;;;;;;2.50;87.11;97567.44;5057126;28;20204;-67
2022/01/22 01:53:53;;;;;;;1.13;1.03;;;;;;;2.26;87.65;97556.91;5056284;28;20207;-67
2022/01/22 01:59:04;;;;;;;13.47;1.30;;;;;;;2.44;87.70;97554.00;5057143;28;20216;-67
2022/01/22 02:01:33;;;;;;;2.87;1.20;;;;;;;2.52;87.86;97549.13;5056249;28;20564;-67
2022/01/22 02:04:00;;;;;;;1.70;1.00;;;;;;;2.36;87.79;97542.41;5061545;28;20217;-67
2022/01/22 02:06:26;;;;;;;0.80;0.80;;;;;;;2.37;88.00;97546.66;5063766;28;20223;-67
2022/01/22 02:08:53;;;;;;;1.20;1.00;;;;;;;2.27;88.35;97537.78;5063617;28;20217;-67
2022/01/22 02:11:22;;;;;;;1.37;1.27;;;;;;;2.40;87.70;97529.91;5063545;28;20242;-67
2022/01/22 02:14:02;;;;;;;1.73;1.17;;;;;;;2.25;88.26;97534.44;5063240;28;20406;-67
2022/01/22 02:24:48;;;;;;;0.87;0.83;;;;;;;2.43;88.07;97524.56;5060175;28;20281;-67
2022/01/22 02:27:15;;;;;;;0.47;0.47;;;;;;;2.25;90.08;97524.84;5065376;28;20334;-67
2022/01/22 02:29:42;;;;;;;0.87;0.67;;;;;;;2.25;90.51;97529.22;5066105;28;20224;-67
2022/01/22 02:32:40;;;;;;;1.27;1.17;;;;;;;2.31;91.31;97523.66;5065977;28;20764;-67
2022/01/22 02:35:10;;;;;;;1.07;0.97;;;;;;;2.09;92.95;97523.31;5065922;28;20290;-68
2022/01/22 02:37:43;;;;;;;1.50;1.40;;;;;;;2.24;93.56;97523.22;5066574;28;20232;-68
2022/01/22 02:40:14;;;;;;;3.17;1.60;;;;;;;2.33;92.91;97529.59;5065590;28;20278;-67
2022/01/22 02:42:41;;;;;;;1.63;1.00;;;;;;;2.25;93.12;97534.44;5064260;28;20205;-67
2022/01/22 02:45:10;;;;;;;6.47;1.93;;;;;;;2.23;93.86;97531.94;5063116;28;21276;-67
2022/01/22 02:47:37;;;;;;;8.23;1.37;;;;;;;2.08;94.06;97529.44;5062814;28;20274;-68
2022/01/22 02:50:04;;;;;;;2.47;1.63;;;;;;;2.20;94.29;97534.75;5062986;28;20208;-68
2022/01/22 02:52:32;;;;;;;1.77;1.43;;;;;;;2.13;95.33;97535.19;5062242;28;20203;-67
2022/01/22 02:55:01;;;;;;;4.50;2.37;;;;;;;2.29;95.20;97533.31;5063397;28;20204;-67
2022/01/22 02:57:31;;;;;;;1.57;0.87;;;;;;;2.18;95.44;97520.16;5062102;28;20224;-67
2022/01/22 02:59:58;;;;;;;5.30;1.57;;;;;;;2.13;95.80;97512.63;5063027;28;21234;-67
2022/01/22 03:02:25;;;;;;;1.27;1.20;;;;;;;2.25;95.21;97506.66;5061958;28;20226;-67
2022/01/22 03:04:51;;;;;;;3.37;1.97;;;;;;;2.12;95.53;97512.72;5062891;28;20205;-67
2022/01/22 03:07:18;;;;;;;2.03;0.97;;;;;;;2.28;95.24;97513.44;5062289;28;20241;-67
2022/01/22 03:09:47;;;;;;;1.37;0.97;;;;;;;2.14;96.02;97509.09;5063618;28;20209;-67
2022/01/22 03:12:34;;;;;;;2.53;1.40;;;;;;;2.21;96.53;97512.16;5061417;28;20213;-67
2022/01/22 03:17:55;;;;;;;2.20;1.40;;;;;;;2.24;96.26;97511.94;5059893;28;20235;-68
2022/01/22 03:20:39;;;;;;;1.23;1.13;;;;;;;2.25;96.82;97514.44;5059686;28;20196;-67
2022/01/22 03:23:10;;;;;;;2.13;1.43;;;;;;;2.26;96.43;97510.09;5058871;28;20211;-67
2022/01/22 03:28:26;;;;;;;9.43;1.67;;;;;;;2.53;95.82;97510.03;5059569;28;20242;-67
2022/01/22 03:30:53;;;;;;;5.20;2.57;;;;;;;2.21;96.86;97512.16;5059878;28;20277;-67
2022/01/22 03:33:22;;;;;;;3.03;1.50;;;;;;;2.39;95.73;97511.00;5058414;28;20208;-68
2022/01/22 03:35:54;;;;;;;2.83;1.07;;;;;;;2.23;96.80;97511.13;5059582;28;20200;-68
2022/01/22 03:38:21;;;;;;;1.60;1.43;;;;;;;2.40;96.41;97497.88;5058470;28;20592;-67
2022/01/22 03:40:49;;;;;;;3.43;2.37;;;;;;;2.36;96.76;97495.59;5059293;28;20675;-67
2022/01/22 03:43:16;;;;;;;4.93;2.30;;;;;;;2.21;96.96;97512.16;5058316;28;20206;-67
2022/01/22 03:45:44;;;;;;;1.87;1.53;;;;;;;2.55;96.65;97508.16;5058958;28;20204;-67
2022/01/22 03:48:11;;;;;;;3.53;2.30;;;;;;;2.46;95.93;97508.75;5058465;28;21009;-68
2022/01/22 03:50:37;;;;;;;2.97;1.43;;;;;;;2.38;96.68;97509.31;5059544;28;20223;-67
2022/01/22 03:53:04;;;;;;;0.83;0.83;;;;;;;2.45;96.35;97514.88;5057829;28;20208;-67
2022/01/22 03:55:40;;;;;;;2.93;1.97;;;;;;;2.58;95.99;97513.19;5055759;28;20203;-67
2022/01/22 03:58:07;;;;;;;1.43;1.33;;;;;;;2.51;95.84;97516.25;5059402;28;20231;-68
2022/01/22 04:00:33;;;;;;;4.80;2.67;;;;;;;2.59;95.94;97527.00;5058289;28;20207;-67
2022/01/22 04:03:27;;;;;;;5.23;1.43;;;;;;;2.59;96.91;97527.00;5058362;28;20204;-67
2022/01/22 04:06:11;;;;;;;2.40;2.20;;;;;;;2.57;95.98;97526.25;5058550;28;20219;-67
2022/01/22 04:08:38;;;;;;;2.03;1.67;;;;;;;2.56;96.49;97528.03;5058041;28;20214;-67
2022/01/22 04:11:09;;;;;;;2.00;1.90;;;;;;;2.68;96.28;97524.63;5059003;28;20827;-67
2022/01/22 04:13:36;;;;;;;2.80;2.07;;;;;;;2.53;96.72;97519.59;5058207;28;20207;-67
2022/01/22 04:16:02;;;;;;;4.00;1.73;;;;;;;2.55;96.88;97517.72;5058648;28;20575;-68
2022/01/22 04:27:00;;;;;;;1.27;1.20;;;;;;;2.82;95.83;97516.78;4975905;28;20281;-67
2022/01/22 04:29:30;;;;;;;3.37;1.50;;;;;;;2.76;96.55;97517.19;4976955;28;20207;-67
2022/01/22 04:31:56;;;;;;;1.87;1.70;;;;;;;2.74;96.58;97518.22;5015406;28;20224;-67
2022/01/22 04:34:24;;;;;;;4.77;2.17;;;;;;;2.72;97.25;97525.28;5057171;28;20223;-68
2022/01/22 04:36:51;;;;;;;3.10;2.07;;;;;;;2.80;95.95;97517.81;5057962;28;20227;-67
2022/01/22 04:39:19;;;;;;;2.50;1.10;;;;;;;2.75;96.33;97520.72;5057950;28;20219;-67
2022/01/22 04:41:45;;;;;;;1.83;1.03;;;;;;;2.77;95.92;97518.03;5057972;28;20224;-67
2022/01/22 04:44:12;;;;;;;1.40;1.30;;;;;;;2.77;96.45;97523.22;5057863;28;20208;-67
2022/01/22 04:46:53;;;;;;;3.57;1.30;;;;;;;2.85;96.14;97520.97;5057971;28;20264;-67
2022/01/22 04:55:01;;;;;;;5.03;2.53;;;;;;;2.74;96.78;97513.03;5057298;28;20216;-67
2022/01/22 04:57:28;;;;;;;2.10;1.60;;;;;;;2.86;96.76;97509.63;5057622;28;20220;-67
2022/01/22 04:59:55;;;;;;;2.57;1.50;;;;;;;2.78;96.94;97520.53;5057282;28;20212;-68
2022/01/22 05:02:21;;;;;;;5.53;2.37;;;;;;;2.93;96.09;97516.06;5057340;28;20228;-67
2022/01/22 05:04:48;;;;;;;4.10;2.53;;;;;;;2.98;95.68;97516.63;5057753;28;20207;-67
2022/01/22 05:07:16;;;;;;;3.70;1.87;;;;;;;3.00;96.49;97509.56;5057440;28;20235;-67
2022/01/22 05:09:42;;;;;;;2.33;2.07;;;;;;;2.95;96.45;97517.66;5057824;28;20214;-67
2022/01/22 05:12:10;;;;;;;9.47;1.93;;;;;;;3.07;96.02;97522.06;5057124;28;20209;-67
2022/01/22 05:14:36;;;;;;;5.20;2.50;;;;;;;3.08;95.33;97519.38;5056959;28;20692;-67
2022/01/22 05:17:05;;;;;;;3.27;2.57;;;;;;;3.12;95.59;97515.63;5057474;28;20220;-66
2022/01/22 05:19:38;;;;;;;4.50;1.67;;;;;;;2.98;96.01;97509.66;5057649;28;20315;-67
2022/01/22 05:22:13;;;;;;;3.50;2.00;;;;;;;2.93;96.53;97519.53;5057789;28;20224;-68
2022/01/22 05:24:46;;;;;;;2.57;1.70;;;;;;;3.37;95.20;97517.44;5055225;28;20204;-66
2022/01/22 05:27:28;;;;;;;5.47;2.47;;;;;;;3.00;95.36;97523.41;5057465;28;20243;-67
2022/01/22 05:30:11;;;;;;;5.13;2.40;;;;;;;3.02;95.04;97518.94;5057487;28;20298;-67
2022/01/22 05:32:54;;;;;;;2.43;1.60;;;;;;;3.15;94.62;97519.78;5057535;28;20280;-66
2022/01/22 05:38:07;;;;;;;9.07;2.40;;;;;;;3.27;94.27;97513.75;5056373;28;20235;-67
2022/01/22 05:40:35;;;;;;;4.50;2.43;;;;;;;3.18;95.13;97515.22;5057667;28;20671;-67
2022/01/22 05:43:01;;;;;;;2.50;1.57;;;;;;;3.14;95.37;97510.31;5056889;28;20235;-67
2022/01/22 05:45:28;;;;;;;2.93;1.83;;;;;;;3.16;94.68;97519.69;5057311;28;20207;-67
2022/01/22 05:47:54;;;;;;;5.37;2.27;;;;;;;3.16;94.85;97524.06;5057747;28;20227;-67
2022/01/22 05:50:31;;;;;;;5.27;2.80;;;;;;;3.13;95.17;97532.06;5057954;28;20202;-67
2022/01/22 05:53:01;;;;;;;2.13;1.90;;;;;;;3.23;94.47;97536.59;5056549;28;20993;-68
2022/01/22 06:01:11;;;;;;;5.03;2.13;;;;;;;3.32;94.32;97537.72;5057154;28;20591;-67
2022/01/22 06:03:38;;;;;;;4.07;2.03;;;;;;;3.25;94.65;97541.69;5054583;28;20208;-68
2022/01/22 06:06:04;;;;;;;2.20;1.93;;;;;;;3.26;94.54;97546.81;5056875;28;20207;-68
2022/01/22 06:08:33;;;;;;;1.80;1.60;;;;;;;3.20;94.61;97548.97;5056831;28;20204;-67
2022/01/22 06:11:07;;;;;;;2.53;1.43;;;;;;;3.29;94.35;97543.16;5057620;28;20298;-67
2022/01/22 06:13:44;;;;;;;2.77;1.93;;;;;;;3.61;93.50;97547.06;5056633;28;20734;-67
2022/01/22 06:16:12;;;;;;;1.90;1.33;;;;;;;3.22;94.80;97547.09;5057208;28;20251;-67
2022/01/22 06:18:38;;;;;;;4.13;2.27;;;;;;;3.30;94.01;97542.22;5056885;28;20200;-67
2022/01/22 06:21:05;;;;;;;2.80;1.87;;;;;;;3.34;93.93;97543.69;5057849;28;20666;-66
2022/01/22 06:23:32;;;;;;;5.77;2.57;;;;;;;3.28;93.97;97541.47;5056030;28;20243;-67
2022/01/22 06:26:00;;;;;;;2.60;1.80;;;;;;;3.17;93.98;97549.16;5054302;28;20259;-67
2022/01/22 06:28:27;;;;;;;2.93;1.73;;;;;;;3.22;94.09;97554.91;5056956;28;20207;-67
2022/01/22 06:30:55;;;;;;;3.17;1.97;;;;;;;3.28;94.54;97557.13;5057812;28;20430;-67
2022/01/22 06:33:21;;;;;;;5.50;2.20;;;;;;;3.26;94.03;97549.41;5056504;28;20208;-67
2022/01/22 06:35:48;;;;;;;2.27;1.53;;;;;;;3.22;93.81;97560.09;5057468;28;20211;-67
2022/01/22 06:38:15;;;;;;;14.07;1.67;;;;;;;3.26;94.01;97561.56;5056467;28;20224;-67
2022/01/22 06:43:26;;;;;;;2.33;1.97;;;;;;;3.11;93.91;97554.78;5056254;28;20213;-67
2022/01/22 06:45:52;;;;;;;1.80;1.70;;;;;;;3.02;94.29;97561.41;5057364;28;20200;-67
2022/01/22 06:48:20;;;;;;;5.37;1.90;;;;;;;3.28;94.37;97551.91;5056267;28;20228;-67
2022/01/22 06:50:46;;;;;;;3.67;2.57;;;;;;;3.07;93.66;97561.13;5060447;28;20208;-67
2022/01/22 06:53:13;;;;;;;1.40;1.30;;;;;;;3.10;93.68;97564.34;5059605;28;21025;-68
2022/01/22 06:55:43;;;;;;;2.23;1.83;;;;;;;3.25;93.74;97567.75;5060002;28;20246;-67
2022/01/22 06:58:09;;;;;;;1.67;1.57;;;;;;;3.03;93.95;97567.47;5060683;28;20693;-68
2022/01/22 07:00:36;;;;;;;3.23;1.93;;;;;;;3.04;94.43;97569.13;5060027;28;20212;-67
2022/01/22 07:03:03;;;;;;;4.50;1.73;;;;;;;3.20;93.63;97568.03;5059714;28;20228;-67
2022/01/22 07:05:33;;;;;;;0.97;0.93;;;;;;;3.20;93.91;97570.63;5059697;28;20208;-68
2022/01/22 07:07:59;;;;;;;2.83;2.13;;;;;;;3.27;92.62;97571.06;5059056;28;20256;-66
2022/01/22 07:10:26;;;;;;;2.20;1.90;;;;;;;3.23;92.71;97559.19;5059818;28;20197;-67
2022/01/22 07:12:52;;;;;;;4.63;2.30;;;;;;;3.13;93.55;97563.31;5059774;28;20200;-67
2022/01/22 07:15:19;;;;;;;3.37;1.90;;;;;;;3.11;92.91;97571.22;5059877;28;20208;-66
2022/01/22 07:17:46;;;;;;;9.17;1.97;;;;;;;3.23;93.04;97574.81;5059815;28;20230;-67
2022/01/22 07:20:16;;;;;;;4.57;2.67;;;;;;;3.18;93.32;97576.88;5059568;28;20240;-67
2022/01/22 07:22:51;;;;;;;5.17;1.93;;;;;;;3.23;93.97;97580.03;5059150;28;20339;-67
2022/01/22 07:25:18;;;;;;;5.70;1.60;;;;;;;3.03;93.96;97586.53;5056821;28;20211;-67
2022/01/22 07:27:44;;;;;;;2.67;1.47;;;;;;;3.06;94.35;97588.91;5059722;28;21279;-68
2022/01/22 07:30:12;;;;;;;2.30;1.73;;;;;;;3.10;93.86;97585.19;5059448;28;20208;-67
2022/01/22 07:32:42;;;;;;;4.27;2.40;;;;;;;3.21;93.52;97587.13;5058734;28;20201;-67
2022/01/22 07:35:10;;;;;;;3.40;1.20;;;;;;;3.18;94.22;97589.91;5059319;28;20230;-67
2022/01/22 07:37:36;;;;;;;5.07;2.20;;;;;;;3.13;94.28;97585.00;5059880;28;20224;-68
2022/01/22 07:40:05;;;;;;;2.70;2.10;;;;;;;3.23;94.17;97591.28;5059883;28;20243;-68
2022/01/22 07:42:31;;;;;;;3.70;1.97;;;;;;;3.01;95.48;97606.59;5058849;28;20224;-67
2022/01/22 07:44:58;;;;;;;6.27;2.60;;;;;;;3.20;95.17;97608.88;5059745;28;20643;-67
2022/01/22 07:47:25;;;;;;;7.37;3.67;;;;;;;3.11;95.73;97604.25;5059132;28;20790;-67
2022/01/22 07:49:51;;;;;;;3.30;2.20;;;;;;;2.94;95.80;97607.13;5060053;28;20688;-67
2022/01/22 07:52:18;;;;;;;4.43;1.90;;;;;;;3.07;96.16;97606.22;5058895;28;20204;-68
2022/01/22 07:54:44;;;;;;;12.13;3.57;;;;;;;3.05;96.19;97602.03;5059205;28;20231;-67
2022/01/22 07:57:12;;;;;;;2.17;2.07;;;;;;;3.04;97.10;97595.16;5059513;28;20224;-67
2022/01/22 07:59:39;;;;;;;2.70;1.73;;;;;;;2.90;96.76;97610.81;5059480;28;20803;-67
2022/01/22 08:02:06;;;;;;;0.93;0.83;;;;;;;3.10;97.22;97603.41;5058199;28;21187;-67
2022/01/22 08:04:34;;;;;;;3.17;1.57;;;;;;;3.25;96.30;97606.81;5059495;28;20200;-67
2022/01/22 08:07:03;;;;;;;3.93;2.37;;;;;;;3.01;97.52;97604.97;5059227;28;20231;-68
2022/01/22 08:09:29;;;;;;;2.40;2.17;;;;;;;2.88;98.13;97598.84;5059516;28;20201;-67
2022/01/22 08:11:56;;;;;;;3.13;1.90;;;;;;;3.08;97.39;97591.41;5059071;28;20220;-67
2022/01/22 08:14:24;;;;;;;3.70;2.23;;;;;;;3.02;97.08;97605.69;5058461;28;20206;-67
2022/01/22 08:16:51;;;;;;;8.23;2.93;;;;;;;2.90;97.70;97607.41;5059018;28;20239;-68
2022/01/22 08:19:18;;;;;;;2.37;1.80;;;;;;;3.09;96.75;97611.31;5059752;28;20208;-67
2022/01/22 08:21:46;;;;;;;2.17;1.50;;;;;;;3.20;96.86;97616.69;5058837;28;20728;-67
2022/01/22 08:24:14;;;;;;;5.23;4.27;;;;;;;3.12;97.40;97613.75;5058615;28;20766;-68
2022/01/22 08:26:46;;;;;;;5.10;1.73;;;;;;;2.90;97.76;97623.03;5056023;28;20226;-67
2022/01/22 08:29:13;;;;;;;1.93;1.23;;;;;;;2.88;97.83;97620.53;5059226;28;20303;-68
2022/01/22 08:31:51;;;;;;;1.83;1.60;;;;;;;2.85;98.90;97620.72;5058404;28;20576;-67
2022/01/22 08:37:02;;;;;;;16.93;3.90;;;;;;;2.86;98.48;97622.38;5058785;28;20239;-67
2022/01/22 08:39:28;;;;;;;8.30;3.50;;;;;;;2.94;98.33;97620.13;5058412;28;20218;-68
2022/01/22 08:41:56;;;;;;;7.13;3.87;;;;;;;2.96;98.16;97618.25;5059108;28;20229;-68
2022/01/22 08:44:23;;;;;;;5.13;2.50;;;;;;;3.03;98.30;97629.97;5058620;28;20218;-67
2022/01/22 08:46:51;;;;;;;6.23;2.13;;;;;;;3.10;98.12;97624.25;5057748;28;20231;-67
2022/01/22 08:49:17;;;;;;;2.10;2.00;;;;;;;2.82;98.71;97618.28;5058678;28;21145;-66
2022/01/22 08:51:44;;;;;;;6.27;2.77;;;;;;;3.01;98.47;97624.00;5058460;28;20208;-67
2022/01/22 08:54:11;;;;;;;2.10;1.60;;;;;;;3.06;98.04;97632.38;5057163;28;20661;-67
2022/01/22 08:56:39;;;;;;;2.87;2.47;;;;;;;2.88;99.22;97632.69;5058006;28;20734;-67
2022/01/22 08:59:06;;;;;;;3.07;2.03;;;;;;;3.02;98.60;97625.69;5059144;28;20260;-67
2022/01/22 09:01:33;;;;;;;6.27;2.00;;;;;;;2.86;98.85;97627.56;5058530;28;20211;-68
2022/01/22 09:04:01;;;;;;;5.03;1.97;;;;;;;2.96;99.55;97627.84;5056647;28;20235;-67
2022/01/22 09:06:28;;;;;;;8.47;4.13;;;;;;;2.82;99.40;97633.91;5057982;28;20228;-66
2022/01/22 09:09:04;;;;;;;2.73;1.70;;;;;;;2.91;98.57;97640.31;5057818;28;20210;-66
2022/01/22 09:11:30;;;;;;;4.03;2.87;;;;;;;2.90;98.86;97643.84;5057777;28;20196;-67
2022/01/22 09:13:56;;;;;;;4.03;2.87;;;;;;;2.83;99.65;97643.41;5055975;28;20208;-67
2022/01/22 09:16:23;;;;;;;3.17;2.17;;;;;;;2.93;98.69;97643.63;5058662;28;20221;-66
2022/01/22 09:18:50;;;;;;;6.70;3.87;;;;;;;2.95;99.16;97652.22;5057383;28;20205;-67
2022/01/22 09:21:19;;;;;;;5.30;1.93;;;;;;;3.41;99.23;97646.53;5058080;28;21262;-67
2022/01/22 09:23:45;;;;;;;2.70;2.40;;;;;;;3.28;97.28;97649.09;5056253;28;20706;-67
2022/01/22 09:26:12;;;;;;;3.73;1.80;;;;;;;3.20;97.76;97658.38;5058233;28;20214;-67
2022/01/22 09:28:38;;;;;;;2.73;2.13;;;;;;;3.02;98.42;97646.53;5057428;28;20209;-67
2022/01/22 09:31:05;;;;;;;2.67;1.80;;;;;;;2.97;99.13;97664.19;5057892;28;20597;-67
2022/01/22 09:33:31;;;;;;;7.37;2.60;;;;;;;3.20;98.71;97668.78;5055928;28;20606;-66
2022/01/22 09:35:58;;;;;;;20.07;3.73;;;;;;;3.24;97.91;97671.06;5054749;28;20207;-66
2022/01/22 09:38:26;;;;;;;3.57;2.03;;;;;;;3.25;98.60;97682.34;5057130;28;20307;-67
2022/01/22 09:40:52;;;;;;;2.87;2.60;;;;;;;3.27;97.61;97672.66;5056684;28;20222;-66
2022/01/22 09:43:19;;;;;;;6.33;2.13;;;;;;;3.18;97.97;97676.69;5056203;28;20230;-66
2022/01/22 09:45:45;;;;;;;4.80;3.00;;;;;;;3.04;99.00;97678.47;5057198;28;20208;-67
2022/01/22 09:48:12;;;;;;;4.97;3.47;;;;;;;3.13;98.52;97677.91;5056579;28;20224;-67
2022/01/22 09:50:38;;;;;;;3.63;2.20;;;;;;;3.16;97.81;97672.53;5056998;28;20215;-67
2022/01/22 09:53:05;;;;;;;13.17;4.63;;;;;;;3.08;98.61;97666.94;5056588;28;20211;-67
2022/01/22 09:55:33;;;;;;;3.10;2.50;;;;;;;3.23;98.64;97672.03;5056543;28;20211;-66
2022/01/22 09:57:59;;;;;;;3.03;2.50;;;;;;;3.11;98.09;97678.00;5056703;28;20232;-67
2022/01/22 10:00:27;;;;;;;5.23;2.43;;;;;;;3.33;97.82;97674.88;5057645;28;20203;-67
2022/01/22 10:02:55;;;;;;;1.83;1.73;;;;;;;3.25;98.23;97682.34;5055547;28;20692;-67
2022/01/22 10:05:30;;;;;;;8.30;3.50;;;;;;;3.56;97.16;97685.47;5056144;28;20891;-67
2022/01/22 10:08:19;;;;;;;3.33;2.37;;;;;;;3.56;97.38;97697.69;5057484;28;20224;-67
2022/01/22 10:10:48;;;;;;;6.20;3.73;;;;;;;3.44;97.05;97698.47;5057317;28;20207;-69
2022/01/22 10:13:14;;;;;;;7.93;4.70;;;;;;;3.43;96.90;97692.41;5056026;28;20207;-69
2022/01/22 10:15:41;;;;;;;4.47;2.90;;;;;;;3.50;96.23;97695.47;5056245;28;20209;-69
2022/01/22 10:18:08;;;;;;;6.50;3.43;;;;;;;3.35;96.89;97699.91;5057078;28;20227;-69
2022/01/22 10:20:38;;;;;;;6.63;2.67;;;;;;;3.21;97.59;97701.72;5056419;28;20204;-69
2022/01/22 10:23:10;;;;;;;5.03;3.07;;;;;;;3.18;98.64;97696.69;5054841;28;20319;-68
2022/01/22 10:25:41;;;;;;;5.73;3.63;;;;;;;3.14;98.03;97700.41;5059660;28;20570;-69
2022/01/22 10:28:13;;;;;;;2.13;1.83;;;;;;;3.02;98.54;97701.19;5060113;28;20601;-69
2022/01/22 10:30:44;;;;;;;3.63;2.07;;;;;;;3.32;97.56;97701.84;5060265;28;20229;-66
2022/01/22 10:33:27;;;;;;;3.33;2.17;;;;;;;3.16;98.39;97688.16;5060240;28;20200;-67
2022/01/22 10:35:55;;;;;;;4.20;2.80;;;;;;;3.07;98.14;97689.56;5057459;28;20567;-67
2022/01/22 10:38:21;;;;;;;2.70;2.03;;;;;;;3.22;97.80;97688.59;5060396;28;20343;-67
2022/01/22 10:40:50;;;;;;;9.63;3.00;;;;;;;3.53;96.79;97682.25;5060570;28;20214;-67
2022/01/22 10:43:25;;;;;;;4.90;2.43;;;;;;;3.50;96.56;97679.81;5059726;28;20629;-67
2022/01/22 10:46:08;;;;;;;17.60;3.87;;;;;;;3.61;96.25;97685.19;5060473;28;20199;-67
2022/01/22 10:48:36;;;;;;;8.80;3.47;;;;;;;3.47;97.10;97677.44;5060157;28;20210;-67
2022/01/22 10:51:08;;;;;;;5.27;3.90;;;;;;;3.45;97.68;97684.50;5060327;28;20207;-67
2022/01/22 10:53:37;;;;;;;4.10;2.07;;;;;;;3.45;97.41;97687.09;5059233;28;20202;-67
2022/01/22 10:56:06;;;;;;;4.20;2.37;;;;;;;3.50;96.98;97678.06;5060158;28;20204;-67
2022/01/22 10:58:35;;;;;;;7.23;3.90;;;;;;;3.58;96.72;97678.41;5060167;28;20335;-67
2022/01/22 11:01:05;;;;;;;8.70;3.73;;;;;;;3.33;97.53;97674.88;5060011;28;20203;-67
2022/01/22 11:03:32;;;;;;;2.67;2.40;;;;;;;3.27;98.21;97677.84;5059137;28;20588;-67
2022/01/22 11:06:04;;;;;;;6.23;3.00;;;;;;;3.25;97.71;97675.34;5059595;28;20201;-67
2022/01/22 11:08:30;;;;;;;8.77;2.73;;;;;;;3.24;97.59;97685.88;5059118;28;20204;-67
2022/01/22 11:10:57;;;;;;;4.93;2.90;;;;;;;3.42;97.39;97680.31;5060130;28;20208;-67
2022/01/22 11:13:23;;;;;;;5.23;3.70;;;;;;;3.36;96.84;97687.69;5059300;28;20197;-67
2022/01/22 11:15:52;;;;;;;6.80;4.60;;;;;;;3.56;97.31;97682.03;5059735;28;20223;-67
2022/01/22 11:18:19;;;;;;;7.83;3.60;;;;;;;3.50;97.13;97690.25;5058948;28;20231;-68
2022/01/22 11:20:47;;;;;;;3.77;2.10;;;;;;;3.29;97.08;97673.41;5061021;28;20231;-67
2022/01/22 11:23:14;;;;;;;3.53;2.27;;;;;;;3.32;97.90;97662.78;5058394;28;20227;-67
2022/01/22 11:25:42;;;;;;;11.63;3.70;;;;;;;3.21;98.04;97666.06;5059351;28;20200;-67
2022/01/22 11:28:09;;;;;;;8.67;3.10;;;;;;;3.38;98.12;97662.38;5059155;28;20250;-67
2022/01/22 11:30:37;;;;;;;3.13;2.63;;;;;;;3.49;97.72;97660.75;5059129;28;20801;-67
2022/01/22 11:33:09;;;;;;;7.23;3.57;;;;;;;3.80;96.95;97655.19;5058363;28;20214;-67
2022/01/22 11:35:45;;;;;;;7.73;3.00;;;;;;;3.65;97.83;97664.88;5055557;28;20206;-67
2022/01/22 11:38:16;;;;;;;9.00;4.33;;;;;;;3.54;98.35;97665.66;5059384;28;20712;-67
2022/01/22 11:40:43;;;;;;;6.37;4.30;;;;;;;3.37;98.18;97671.94;5058873;28;20305;-66
2022/01/22 11:43:12;;;;;;;2.67;2.43;;;;;;;3.55;97.70;97672.53;5058275;28;20235;-67
2022/01/22 11:45:44;;;;;;;6.87;3.47;;;;;;;3.68;97.79;97671.66;5058879;28;20323;-66
2022/01/22 11:48:14;;;;;;;3.70;2.57;;;;;;;3.60;97.56;97678.28;5059975;28;20281;-67
2022/01/22 11:50:42;;;;;;;4.50;3.60;;;;;;;3.65;96.98;97670.09;5060641;28;20203;-67
2022/01/22 11:53:23;;;;;;;6.47;3.23;;;;;;;3.87;96.95;97666.88;5058970;28;20198;-67
2022/01/22 11:56:16;;;;;;;2.47;2.17;;;;;;;3.95;96.31;97675.88;5060433;28;20226;-67
2022/01/22 11:59:16;;;;;;;4.20;2.17;;;;;;;3.93;96.52;97669.91;5061634;28;20728;-66
2022/01/22 12:01:56;;;;;;;6.80;2.97;;;;;;;3.74;96.96;97664.25;5052908;28;20219;-66
2022/01/22 12:04:25;;;;;;;2.83;1.87;;;;;;;3.58;96.80;97674.94;5057953;28;20259;-67
2022/01/22 12:07:17;;;;;;;4.27;2.33;;;;;;;3.83;96.73;97662.81;5059281;28;20224;-67
2022/01/22 12:09:53;;;;;;;7.07;3.17;;;;;;;3.53;97.79;97661.41;5058861;28;20234;-67
2022/01/22 12:15:14;;;;;;;3.07;2.60;;;;;;;3.79;96.91;97659.59;5058791;28;20207;-68
2022/01/22 12:18:10;;;;;;;5.57;3.33;;;;;;;4.21;95.59;97641.03;5058922;28;20247;-67
2022/01/22 12:23:51;;;;;;;11.30;2.40;;;;;;;4.20;96.75;97644.59;5058786;28;20238;-67
2022/01/22 12:27:01;;;;;;;7.10;3.50;;;;;;;4.19;97.20;97650.75;5058581;28;20208;-67
2022/01/22 12:29:36;;;;;;;4.17;2.33;;;;;;;3.98;97.68;97656.56;5058834;28;20315;-67
2022/01/22 12:32:13;;;;;;;2.30;1.40;;;;;;;3.83;98.38;97655.84;5058812;28;20208;-67
2022/01/22 12:35:02;;;;;;;6.90;3.20;;;;;;;4.10;97.54;97650.53;5055058;28;20307;-67
2022/01/22 12:37:30;;;;;;;3.43;2.27;;;;;;;3.86;99.03;97650.41;5055528;28;20254;-67
2022/01/22 12:39:57;;;;;;;9.70;4.10;;;;;;;3.96;98.00;97651.47;5057182;28;20208;-67
2022/01/22 12:42:51;;;;;;;5.20;2.67;;;;;;;4.03;98.22;97665.75;5056223;28;20287;-67
2022/01/22 12:45:19;;;;;;;3.07;2.50;;;;;;;3.81;99.24;97659.47;5057048;28;20782;-67
2022/01/22 12:47:47;;;;;;;1.73;1.63;;;;;;;3.80;99.45;97661.22;5056422;28;20235;-67
2022/01/22 12:50:14;;;;;;;5.20;3.27;;;;;;;3.79;100.00;97648.31;5056914;28;20261;-67
2022/01/22 12:52:47;;;;;;;6.03;3.87;;;;;;;3.71;100.00;97654.03;5056846;28;20208;-67
2022/01/22 12:55:17;;;;;;;6.73;2.37;;;;;;;3.72;100.00;97652.28;5057524;28;20204;-67
2022/01/22 12:57:44;;;;;;;2.37;2.17;;;;;;;3.58;100.00;97660.16;5056801;28;20338;-67